DAH1071 LFMT-DAAG
Flight info
| Callsign | DAH1071 |
|---|---|
| Flight time | 1h 11m |
| Altitude | 33000 |
| Route | PPG8N PPG DCT KANIG DCT KENAS DCT POS N855 BUYAH |
| Aircraft | B738/M-SDE2E3FGHIRWXY/LB1 |
Departure
| Time | 2026-04-20 18:29 |
|---|---|
| Airport | Montpellier-Méditerranée Airport (LFMT) |
Arrival
| Time | 2026-04-20 19:41 |
|---|---|
| Airport | Houari Boumediene Airport (DAAG) |
| Time | Latitude | Longitude | Altitude | Speed | Heading |
|---|---|---|---|---|---|
| 2026-04-20 17:42 | 43.57896 | 3.96050 | 17 ft | 0 kts | 304° |
| 2026-04-20 18:19 | 43.57897 | 3.96066 | 17 ft | 3 kts | 265° |
| 2026-04-20 18:20 | 43.57898 | 3.96084 | 18 ft | 3 kts | 262° |
| 2026-04-20 18:20 | 43.57902 | 3.96111 | 17 ft | 3 kts | 251° |
| 2026-04-20 18:20 | 43.57911 | 3.96136 | 21 ft | 3 kts | 230° |
| 2026-04-20 18:20 | 43.57921 | 3.96149 | 19 ft | 1 kts | 215° |
| 2026-04-20 18:21 | 43.57924 | 3.96152 | 17 ft | 0 kts | 215° |
| 2026-04-20 18:23 | 43.57917 | 3.96151 | 21 ft | 1 kts | 173° |
| 2026-04-20 18:24 | 43.57880 | 3.96200 | 17 ft | 14 kts | 124° |
| 2026-04-20 18:24 | 43.57809 | 3.96342 | 17 ft | 19 kts | 124° |
| 2026-04-20 18:24 | 43.57790 | 3.96435 | 17 ft | 9 kts | 54° |
| 2026-04-20 18:24 | 43.57851 | 3.96462 | 17 ft | 10 kts | 7° |
| 2026-04-20 18:25 | 43.57925 | 3.96482 | 17 ft | 10 kts | 40° |
| 2026-04-20 18:25 | 43.57912 | 3.96562 | 16 ft | 11 kts | 124° |
| 2026-04-20 18:25 | 43.57863 | 3.96660 | 14 ft | 14 kts | 125° |
| 2026-04-20 18:25 | 43.57807 | 3.96771 | 14 ft | 15 kts | 125° |
| 2026-04-20 18:26 | 43.57746 | 3.96893 | 14 ft | 16 kts | 124° |
| 2026-04-20 18:26 | 43.57680 | 3.97023 | 17 ft | 16 kts | 126° |
| 2026-04-20 18:26 | 43.57615 | 3.97147 | 18 ft | 16 kts | 125° |
| 2026-04-20 18:26 | 43.57549 | 3.97280 | 20 ft | 17 kts | 123° |
| 2026-04-20 18:27 | 43.57483 | 3.97413 | 22 ft | 18 kts | 126° |
| 2026-04-20 18:27 | 43.57407 | 3.97564 | 19 ft | 20 kts | 124° |
| 2026-04-20 18:27 | 43.57324 | 3.97731 | 17 ft | 22 kts | 128° |
| 2026-04-20 18:27 | 43.57229 | 3.97913 | 17 ft | 24 kts | 124° |
| 2026-04-20 18:28 | 43.57185 | 3.98096 | 17 ft | 21 kts | 69° |
| 2026-04-20 18:28 | 43.57256 | 3.98166 | 18 ft | 8 kts | 15° |
| 2026-04-20 18:28 | 43.57312 | 3.98153 | 18 ft | 9 kts | 314° |
| 2026-04-20 18:28 | 43.57351 | 3.98073 | 18 ft | 14 kts | 304° |
| 2026-04-20 18:29 | 43.57565 | 3.97647 | 20 ft | 96 kts | 304° |
| 2026-04-20 18:29 | 43.58088 | 3.96608 | 24 ft | 166 kts | 305° |
| 2026-04-20 18:29 | 43.58846 | 3.95118 | 324 ft | 205 kts | 304° |
| 2026-04-20 18:29 | 43.59679 | 3.93376 | 1106 ft | 227 kts | 296° |
| 2026-04-20 18:30 | 43.60022 | 3.91239 | 1954 ft | 235 kts | 266° |
| 2026-04-20 18:30 | 43.59450 | 3.89167 | 2677 ft | 237 kts | 232° |
| 2026-04-20 18:30 | 43.58066 | 3.87909 | 3346 ft | 245 kts | 197° |
| 2026-04-20 18:30 | 43.56354 | 3.87684 | 4189 ft | 249 kts | 184° |
| 2026-04-20 18:31 | 43.54604 | 3.87691 | 4726 ft | 256 kts | 179° |
| 2026-04-20 18:31 | 43.52821 | 3.87910 | 5529 ft | 258 kts | 176° |
| 2026-04-20 18:31 | 43.51020 | 3.88184 | 6392 ft | 264 kts | 181° |
| 2026-04-20 18:31 | 43.49223 | 3.87671 | 6971 ft | 266 kts | 210° |
| 2026-04-20 18:32 | 43.47828 | 3.86034 | 7583 ft | 266 kts | 237° |
| 2026-04-20 18:32 | 43.46988 | 3.83754 | 8218 ft | 269 kts | 246° |
| 2026-04-20 18:32 | 43.46041 | 3.81557 | 8798 ft | 273 kts | 234° |
| 2026-04-20 18:32 | 43.44854 | 3.79498 | 9410 ft | 276 kts | 231° |
| 2026-04-20 18:33 | 43.43582 | 3.77481 | 10019 ft | 279 kts | 229° |
| 2026-04-20 18:33 | 43.42244 | 3.75496 | 10621 ft | 290 kts | 228° |
| 2026-04-20 18:33 | 43.40795 | 3.73440 | 11220 ft | 304 kts | 227° |
| 2026-04-20 18:33 | 43.39272 | 3.71337 | 11822 ft | 315 kts | 226° |
| 2026-04-20 18:34 | 43.37688 | 3.69180 | 12421 ft | 326 kts | 226° |
| 2026-04-20 18:34 | 43.36063 | 3.66987 | 13017 ft | 335 kts | 226° |
| 2026-04-20 18:34 | 43.34350 | 3.64690 | 13637 ft | 344 kts | 225° |
| 2026-04-20 18:34 | 43.32637 | 3.62402 | 14242 ft | 351 kts | 225° |
| 2026-04-20 18:35 | 43.30862 | 3.60035 | 14855 ft | 357 kts | 225° |
| 2026-04-20 18:35 | 43.29063 | 3.57641 | 15463 ft | 363 kts | 225° |
| 2026-04-20 18:35 | 43.27237 | 3.55213 | 16077 ft | 367 kts | 225° |
| 2026-04-20 18:35 | 43.25386 | 3.52754 | 16691 ft | 371 kts | 225° |
| 2026-04-20 18:36 | 43.23516 | 3.50273 | 17301 ft | 375 kts | 225° |
| 2026-04-20 18:36 | 43.21653 | 3.47802 | 17902 ft | 378 kts | 225° |
| 2026-04-20 18:36 | 43.19755 | 3.45288 | 18518 ft | 380 kts | 225° |
| 2026-04-20 18:36 | 43.17847 | 3.42762 | 19129 ft | 382 kts | 225° |
| 2026-04-20 18:37 | 43.15920 | 3.40215 | 19640 ft | 387 kts | 225° |
| 2026-04-20 18:37 | 43.13972 | 3.37642 | 20162 ft | 390 kts | 225° |
| 2026-04-20 18:37 | 43.12034 | 3.35083 | 20623 ft | 395 kts | 225° |
| 2026-04-20 18:37 | 43.10036 | 3.32449 | 21133 ft | 398 kts | 225° |
| 2026-04-20 18:38 | 43.08031 | 3.29808 | 21619 ft | 401 kts | 225° |
| 2026-04-20 18:38 | 43.06013 | 3.27151 | 22113 ft | 404 kts | 225° |
| 2026-04-20 18:38 | 43.03972 | 3.24468 | 22526 ft | 409 kts | 225° |
| 2026-04-20 18:38 | 43.01918 | 3.21770 | 22980 ft | 412 kts | 225° |
| 2026-04-20 18:39 | 42.99868 | 3.19079 | 23423 ft | 415 kts | 225° |
| 2026-04-20 18:39 | 42.97764 | 3.16322 | 23851 ft | 418 kts | 225° |
| 2026-04-20 18:39 | 42.95657 | 3.13562 | 24303 ft | 420 kts | 225° |
| 2026-04-20 18:39 | 42.93542 | 3.10795 | 24729 ft | 422 kts | 225° |
| 2026-04-20 18:40 | 42.91413 | 3.08012 | 25198 ft | 423 kts | 225° |
| 2026-04-20 18:40 | 42.89292 | 3.05243 | 25615 ft | 425 kts | 225° |
| 2026-04-20 18:40 | 42.87160 | 3.02462 | 26084 ft | 426 kts | 225° |
| 2026-04-20 18:40 | 42.85016 | 2.99667 | 26505 ft | 427 kts | 225° |
| 2026-04-20 18:41 | 42.82865 | 2.96866 | 26941 ft | 427 kts | 225° |
| 2026-04-20 18:41 | 42.80710 | 2.94062 | 27407 ft | 427 kts | 225° |
| 2026-04-20 18:41 | 42.78495 | 2.91375 | 27793 ft | 429 kts | 217° |
| 2026-04-20 18:41 | 42.75848 | 2.89463 | 28109 ft | 434 kts | 198° |
| 2026-04-20 18:42 | 42.72908 | 2.88801 | 28595 ft | 434 kts | 181° |
| 2026-04-20 18:42 | 42.69923 | 2.89299 | 29071 ft | 434 kts | 167° |
| 2026-04-20 18:42 | 42.67012 | 2.90422 | 29561 ft | 432 kts | 166° |
| 2026-04-20 18:42 | 42.64118 | 2.91549 | 30037 ft | 430 kts | 165° |
| 2026-04-20 18:43 | 42.61264 | 2.92712 | 30484 ft | 427 kts | 165° |
| 2026-04-20 18:43 | 42.58423 | 2.93896 | 30934 ft | 425 kts | 164° |
| 2026-04-20 18:43 | 42.55643 | 2.95072 | 31379 ft | 422 kts | 164° |
| 2026-04-20 18:43 | 42.52856 | 2.96260 | 31830 ft | 418 kts | 164° |
| 2026-04-20 18:44 | 42.50092 | 2.97442 | 32281 ft | 414 kts | 164° |
| 2026-04-20 18:44 | 42.47343 | 2.98506 | 32698 ft | 409 kts | 169° |
| 2026-04-20 18:44 | 42.44540 | 2.98963 | 32952 ft | 406 kts | 183° |
| 2026-04-20 18:44 | 42.41696 | 2.98790 | 33026 ft | 409 kts | 184° |
| 2026-04-20 18:45 | 42.36055 | 2.99210 | 33019 ft | 422 kts | 174° |
| 2026-04-20 18:45 | 42.30113 | 2.99823 | 33018 ft | 433 kts | 179° |
| 2026-04-20 18:46 | 42.24007 | 3.00283 | 33002 ft | 444 kts | 178° |
| 2026-04-20 18:46 | 42.17789 | 3.00786 | 32999 ft | 455 kts | 178° |
| 2026-04-20 18:47 | 42.11384 | 3.01306 | 32997 ft | 465 kts | 178° |
| 2026-04-20 18:47 | 42.04889 | 3.01832 | 33002 ft | 467 kts | 178° |
| 2026-04-20 18:48 | 41.98394 | 3.02357 | 32996 ft | 467 kts | 178° |
| 2026-04-20 18:48 | 41.91891 | 3.02882 | 32995 ft | 467 kts | 178° |
| 2026-04-20 18:49 | 41.85393 | 3.03405 | 33000 ft | 468 kts | 178° |
| 2026-04-20 18:49 | 41.78923 | 3.03925 | 33003 ft | 468 kts | 178° |
| 2026-04-20 18:50 | 41.72424 | 3.04446 | 33001 ft | 467 kts | 178° |
| 2026-04-20 18:50 | 41.65957 | 3.04964 | 33002 ft | 467 kts | 178° |
| 2026-04-20 18:51 | 41.59459 | 3.05483 | 32999 ft | 467 kts | 178° |
| 2026-04-20 18:51 | 41.52997 | 3.05998 | 32997 ft | 467 kts | 178° |
| 2026-04-20 18:52 | 41.46478 | 3.06516 | 32996 ft | 467 kts | 178° |
| 2026-04-20 18:52 | 41.40019 | 3.07029 | 32999 ft | 467 kts | 178° |
| 2026-04-20 18:53 | 41.33514 | 3.07545 | 32997 ft | 467 kts | 178° |
| 2026-04-20 18:53 | 41.27060 | 3.08055 | 33001 ft | 467 kts | 178° |
| 2026-04-20 18:54 | 41.20551 | 3.08569 | 33001 ft | 467 kts | 178° |
| 2026-04-20 18:54 | 41.14087 | 3.09078 | 33003 ft | 467 kts | 178° |
| 2026-04-20 18:55 | 41.07584 | 3.09589 | 33000 ft | 467 kts | 178° |
| 2026-04-20 18:55 | 41.01093 | 3.10098 | 33002 ft | 467 kts | 178° |
| 2026-04-20 18:56 | 40.94641 | 3.10603 | 33003 ft | 467 kts | 178° |
| 2026-04-20 18:56 | 40.88133 | 3.11112 | 33002 ft | 467 kts | 178° |
| 2026-04-20 18:57 | 40.81640 | 3.11618 | 32999 ft | 467 kts | 178° |
| 2026-04-20 18:57 | 40.75168 | 3.12122 | 32997 ft | 467 kts | 178° |
| 2026-04-20 18:58 | 40.68674 | 3.12627 | 32998 ft | 467 kts | 178° |
| 2026-04-20 18:58 | 40.62225 | 3.13127 | 33001 ft | 467 kts | 178° |
| 2026-04-20 18:59 | 40.55702 | 3.13632 | 32998 ft | 467 kts | 178° |
| 2026-04-20 18:59 | 40.49242 | 3.14042 | 32988 ft | 466 kts | 183° |
| 2026-04-20 19:00 | 40.42760 | 3.13502 | 33010 ft | 467 kts | 183° |
| 2026-04-20 19:00 | 40.36294 | 3.13284 | 33019 ft | 466 kts | 183° |
| 2026-04-20 19:01 | 40.29815 | 3.13018 | 33004 ft | 466 kts | 183° |
| 2026-04-20 19:01 | 40.23319 | 3.12745 | 33000 ft | 466 kts | 183° |
| 2026-04-20 19:02 | 40.16861 | 3.12473 | 33000 ft | 466 kts | 183° |
| 2026-04-20 19:02 | 40.10373 | 3.12201 | 32999 ft | 466 kts | 183° |
| 2026-04-20 19:03 | 40.03874 | 3.11928 | 33002 ft | 466 kts | 183° |
| 2026-04-20 19:03 | 39.97407 | 3.11658 | 33001 ft | 466 kts | 183° |
| 2026-04-20 19:04 | 39.91148 | 3.11530 | 32995 ft | 467 kts | 180° |
| 2026-04-20 19:04 | 39.84638 | 3.11715 | 32995 ft | 467 kts | 180° |
| 2026-04-20 19:05 | 39.78180 | 3.11845 | 32997 ft | 466 kts | 180° |
| 2026-04-20 19:05 | 39.71672 | 3.11970 | 32997 ft | 467 kts | 180° |
| 2026-04-20 19:06 | 39.65197 | 3.12094 | 32997 ft | 467 kts | 180° |
| 2026-04-20 19:06 | 39.59778 | 3.12366 | 31893 ft | 447 kts | 160° |
| 2026-04-20 19:07 | 39.56868 | 3.14425 | 26980 ft | 537 kts | 166° |
| 2026-04-20 19:07 | 39.53416 | 3.15380 | 28117 ft | 467 kts | 175° |
| 2026-04-20 19:07 | 39.50359 | 3.15353 | 29591 ft | 417 kts | 189° |
| 2026-04-20 19:07 | 39.47637 | 3.15065 | 31697 ft | 371 kts | 184° |
| 2026-04-20 19:08 | 39.45117 | 3.14897 | 32580 ft | 358 kts | 187° |
| 2026-04-20 19:08 | 39.40339 | 3.13323 | 32980 ft | 353 kts | 201° |
| 2026-04-20 19:09 | 39.35523 | 3.11862 | 32971 ft | 367 kts | 179° |
| 2026-04-20 19:09 | 39.32976 | 3.12412 | 33005 ft | 373 kts | 165° |
| 2026-04-20 19:09 | 39.30421 | 3.12986 | 32977 ft | 376 kts | 178° |
| 2026-04-20 19:10 | 39.25139 | 3.12997 | 32983 ft | 386 kts | 180° |
| 2026-04-20 19:10 | 39.19702 | 3.13106 | 32999 ft | 398 kts | 181° |
| 2026-04-20 19:11 | 39.14068 | 3.13185 | 33002 ft | 410 kts | 181° |
| 2026-04-20 19:11 | 39.08303 | 3.13258 | 32998 ft | 422 kts | 181° |
| 2026-04-20 19:12 | 39.02359 | 3.13334 | 32999 ft | 434 kts | 181° |
| 2026-04-20 19:12 | 38.96225 | 3.13434 | 33003 ft | 446 kts | 180° |
| 2026-04-20 19:13 | 38.89926 | 3.13564 | 32997 ft | 457 kts | 180° |
| 2026-04-20 19:13 | 38.83577 | 3.13690 | 33003 ft | 459 kts | 180° |
| 2026-04-20 19:14 | 38.77167 | 3.13817 | 33001 ft | 459 kts | 180° |
| 2026-04-20 19:14 | 38.70953 | 3.13940 | 32995 ft | 459 kts | 180° |
| 2026-04-20 19:15 | 38.64599 | 3.14065 | 32998 ft | 459 kts | 180° |
| 2026-04-20 19:15 | 38.58207 | 3.14192 | 32996 ft | 459 kts | 180° |
| 2026-04-20 19:16 | 38.51905 | 3.14321 | 32954 ft | 448 kts | 180° |
| 2026-04-20 19:16 | 38.48802 | 3.14383 | 32514 ft | 442 kts | 180° |
| 2026-04-20 19:16 | 38.45721 | 3.14445 | 32068 ft | 438 kts | 180° |
| 2026-04-20 19:16 | 38.42687 | 3.14506 | 31618 ft | 434 kts | 180° |
| 2026-04-20 19:17 | 38.39706 | 3.14566 | 31173 ft | 431 kts | 180° |
| 2026-04-20 19:17 | 38.36722 | 3.14626 | 30726 ft | 428 kts | 180° |
| 2026-04-20 19:17 | 38.33748 | 3.14686 | 30279 ft | 425 kts | 180° |
| 2026-04-20 19:17 | 38.30788 | 3.14745 | 29824 ft | 422 kts | 181° |
| 2026-04-20 19:18 | 38.27863 | 3.14804 | 29380 ft | 419 kts | 181° |
| 2026-04-20 19:18 | 38.24947 | 3.14862 | 28930 ft | 416 kts | 181° |
| 2026-04-20 19:18 | 38.22065 | 3.14920 | 28481 ft | 413 kts | 181° |
| 2026-04-20 19:18 | 38.19227 | 3.14977 | 28035 ft | 410 kts | 181° |
| 2026-04-20 19:19 | 38.16373 | 3.15034 | 27590 ft | 407 kts | 181° |
| 2026-04-20 19:19 | 38.13562 | 3.15090 | 27137 ft | 405 kts | 181° |
| 2026-04-20 19:19 | 38.10745 | 3.15226 | 26678 ft | 402 kts | 176° |
| 2026-04-20 19:19 | 38.08007 | 3.15971 | 26202 ft | 402 kts | 162° |
| 2026-04-20 19:20 | 38.05374 | 3.17131 | 25743 ft | 399 kts | 164° |
| 2026-04-20 19:20 | 38.02690 | 3.18014 | 25264 ft | 395 kts | 168° |
| 2026-04-20 19:20 | 38.00063 | 3.18815 | 24792 ft | 393 kts | 168° |
| 2026-04-20 19:20 | 37.97412 | 3.19642 | 24306 ft | 391 kts | 168° |
| 2026-04-20 19:21 | 37.94722 | 3.20170 | 23819 ft | 389 kts | 177° |
| 2026-04-20 19:21 | 37.92039 | 3.20498 | 23357 ft | 388 kts | 174° |
| 2026-04-20 19:21 | 37.89364 | 3.20956 | 22875 ft | 384 kts | 174° |
| 2026-04-20 19:21 | 37.86746 | 3.21412 | 22411 ft | 374 kts | 174° |
| 2026-04-20 19:22 | 37.84195 | 3.21857 | 21933 ft | 366 kts | 174° |
| 2026-04-20 19:22 | 37.81724 | 3.22287 | 21463 ft | 358 kts | 174° |
| 2026-04-20 19:22 | 37.79263 | 3.22715 | 20990 ft | 356 kts | 174° |
| 2026-04-20 19:22 | 37.76825 | 3.23139 | 20515 ft | 353 kts | 174° |
| 2026-04-20 19:23 | 37.74407 | 3.23560 | 20038 ft | 347 kts | 174° |
| 2026-04-20 19:23 | 37.72035 | 3.23971 | 19564 ft | 341 kts | 174° |
| 2026-04-20 19:23 | 37.69697 | 3.24377 | 19086 ft | 335 kts | 174° |
| 2026-04-20 19:23 | 37.67394 | 3.24777 | 18606 ft | 331 kts | 174° |
| 2026-04-20 19:24 | 37.65130 | 3.25169 | 18131 ft | 328 kts | 174° |
| 2026-04-20 19:24 | 37.62872 | 3.25560 | 17654 ft | 326 kts | 174° |
| 2026-04-20 19:24 | 37.60633 | 3.25948 | 17177 ft | 323 kts | 174° |
| 2026-04-20 19:24 | 37.58442 | 3.26327 | 16705 ft | 321 kts | 174° |
| 2026-04-20 19:25 | 37.56225 | 3.26710 | 16218 ft | 319 kts | 174° |
| 2026-04-20 19:25 | 37.54031 | 3.27089 | 15754 ft | 316 kts | 174° |
| 2026-04-20 19:25 | 37.51849 | 3.27466 | 15270 ft | 314 kts | 174° |
| 2026-04-20 19:25 | 37.49716 | 3.27834 | 14775 ft | 312 kts | 174° |
| 2026-04-20 19:26 | 37.47568 | 3.28205 | 14308 ft | 310 kts | 174° |
| 2026-04-20 19:26 | 37.45438 | 3.28572 | 13815 ft | 307 kts | 174° |
| 2026-04-20 19:26 | 37.43330 | 3.28935 | 13351 ft | 305 kts | 174° |
| 2026-04-20 19:26 | 37.41227 | 3.29297 | 12878 ft | 303 kts | 174° |
| 2026-04-20 19:27 | 37.39143 | 3.29656 | 12393 ft | 302 kts | 174° |
| 2026-04-20 19:27 | 37.37070 | 3.30013 | 11925 ft | 300 kts | 174° |
| 2026-04-20 19:27 | 37.35016 | 3.30366 | 11448 ft | 297 kts | 174° |
| 2026-04-20 19:27 | 37.32967 | 3.30718 | 10970 ft | 294 kts | 174° |
| 2026-04-20 19:28 | 37.30950 | 3.31064 | 10491 ft | 291 kts | 174° |
| 2026-04-20 19:28 | 37.28962 | 3.31405 | 10016 ft | 287 kts | 174° |
| 2026-04-20 19:28 | 37.26986 | 3.31744 | 9537 ft | 284 kts | 174° |
| 2026-04-20 19:28 | 37.25056 | 3.32075 | 9062 ft | 282 kts | 174° |
| 2026-04-20 19:29 | 37.23121 | 3.32407 | 8584 ft | 279 kts | 174° |
| 2026-04-20 19:29 | 37.21259 | 3.32726 | 8185 ft | 275 kts | 174° |
| 2026-04-20 19:29 | 37.19314 | 3.33058 | 7773 ft | 273 kts | 174° |
| 2026-04-20 19:29 | 37.17463 | 3.33375 | 7376 ft | 271 kts | 174° |
| 2026-04-20 19:30 | 37.15600 | 3.33693 | 6973 ft | 269 kts | 175° |
| 2026-04-20 19:30 | 37.13749 | 3.34010 | 6570 ft | 268 kts | 175° |
| 2026-04-20 19:30 | 37.11895 | 3.34327 | 6135 ft | 266 kts | 175° |
| 2026-04-20 19:30 | 37.10074 | 3.34638 | 5709 ft | 264 kts | 175° |
| 2026-04-20 19:31 | 37.08248 | 3.34950 | 5292 ft | 267 kts | 175° |
| 2026-04-20 19:31 | 37.06418 | 3.35413 | 4839 ft | 275 kts | 164° |
| 2026-04-20 19:31 | 37.04636 | 3.36259 | 4583 ft | 273 kts | 160° |
| 2026-04-20 19:31 | 37.02885 | 3.37167 | 4361 ft | 268 kts | 160° |
| 2026-04-20 19:32 | 37.01179 | 3.38073 | 4138 ft | 265 kts | 159° |
| 2026-04-20 19:32 | 36.99500 | 3.38969 | 3900 ft | 260 kts | 160° |
| 2026-04-20 19:32 | 36.97974 | 3.39774 | 3691 ft | 257 kts | 160° |
| 2026-04-20 19:32 | 36.96516 | 3.40538 | 3482 ft | 254 kts | 160° |
| 2026-04-20 19:33 | 36.94916 | 3.41379 | 3263 ft | 251 kts | 160° |
| 2026-04-20 19:33 | 36.93303 | 3.42232 | 3062 ft | 247 kts | 160° |
| 2026-04-20 19:33 | 36.91744 | 3.43060 | 2926 ft | 236 kts | 160° |
| 2026-04-20 19:33 | 36.90262 | 3.43851 | 2714 ft | 227 kts | 160° |
| 2026-04-20 19:34 | 36.88831 | 3.44583 | 2504 ft | 218 kts | 161° |
| 2026-04-20 19:34 | 36.87451 | 3.45262 | 2345 ft | 207 kts | 162° |
| 2026-04-20 19:34 | 36.86117 | 3.45810 | 2311 ft | 204 kts | 170° |
| 2026-04-20 19:34 | 36.84710 | 3.46101 | 2308 ft | 202 kts | 183° |
| 2026-04-20 19:35 | 36.83425 | 3.45594 | 2041 ft | 194 kts | 222° |
| 2026-04-20 19:35 | 36.82558 | 3.44425 | 2418 ft | 177 kts | 236° |
| 2026-04-20 19:35 | 36.81921 | 3.43111 | 3042 ft | 184 kts | 240° |
| 2026-04-20 19:35 | 36.81182 | 3.41723 | 2401 ft | 196 kts | 238° |
| 2026-04-20 19:36 | 36.80437 | 3.40343 | 2366 ft | 192 kts | 238° |
| 2026-04-20 19:36 | 36.79672 | 3.38988 | 2348 ft | 185 kts | 236° |
| 2026-04-20 19:36 | 36.78938 | 3.37746 | 2304 ft | 168 kts | 236° |
| 2026-04-20 19:36 | 36.78286 | 3.36663 | 2291 ft | 151 kts | 236° |
| 2026-04-20 19:37 | 36.77666 | 3.35637 | 2150 ft | 145 kts | 235° |
| 2026-04-20 19:37 | 36.77074 | 3.34659 | 2008 ft | 139 kts | 236° |
| 2026-04-20 19:37 | 36.76502 | 3.33715 | 1799 ft | 135 kts | 236° |
| 2026-04-20 19:37 | 36.75935 | 3.32782 | 1623 ft | 134 kts | 236° |
| 2026-04-20 19:38 | 36.75372 | 3.31853 | 1442 ft | 134 kts | 235° |
| 2026-04-20 19:38 | 36.74813 | 3.30937 | 1247 ft | 132 kts | 236° |
| 2026-04-20 19:38 | 36.74257 | 3.30023 | 1087 ft | 132 kts | 236° |
| 2026-04-20 19:38 | 36.73706 | 3.29118 | 903 ft | 131 kts | 236° |
| 2026-04-20 19:39 | 36.73155 | 3.28210 | 740 ft | 131 kts | 236° |
| 2026-04-20 19:39 | 36.72602 | 3.27303 | 538 ft | 130 kts | 235° |
| 2026-04-20 19:39 | 36.72064 | 3.26410 | 336 ft | 131 kts | 234° |
| 2026-04-20 19:39 | 36.71513 | 3.25502 | 210 ft | 132 kts | 232° |
| 2026-04-20 19:40 | 36.70970 | 3.24610 | 85 ft | 121 kts | 233° |
| 2026-04-20 19:40 | 36.70500 | 3.23840 | 84 ft | 103 kts | 232° |
| 2026-04-20 19:40 | 36.70096 | 3.23180 | 86 ft | 90 kts | 233° |
| 2026-04-20 19:40 | 36.69729 | 3.22583 | 83 ft | 82 kts | 232° |
| 2026-04-20 19:41 | 36.69469 | 3.22164 | 83 ft | 36 kts | 232° |
| 2026-04-20 19:41 | 36.69383 | 3.21985 | 79 ft | 25 kts | 259° |
| 2026-04-20 19:41 | 36.69382 | 3.21747 | 71 ft | 29 kts | 270° |
| 2026-04-20 19:41 | 36.69383 | 3.21492 | 72 ft | 30 kts | 270° |
| 2026-04-20 19:42 | 36.69385 | 3.21231 | 72 ft | 31 kts | 270° |
| 2026-04-20 19:42 | 36.69384 | 3.21004 | 72 ft | 15 kts | 269° |
| 2026-04-20 19:42 | 36.69404 | 3.20876 | 68 ft | 16 kts | 316° |
| 2026-04-20 19:42 | 36.69512 | 3.20828 | 69 ft | 17 kts | 340° |
| 2026-04-20 19:43 | 36.69599 | 3.20743 | 69 ft | 16 kts | 274° |
| 2026-04-20 19:43 | 36.69598 | 3.20604 | 72 ft | 17 kts | 272° |
| 2026-04-20 19:43 | 36.69592 | 3.20509 | 67 ft | 8 kts | 235° |
| 2026-04-20 19:43 | 36.69539 | 3.20493 | 72 ft | 5 kts | 180° |
| 2026-04-20 19:44 | 36.69523 | 3.20493 | 72 ft | 1 kts | 181° |
| 2026-04-20 19:44 | 36.69517 | 3.20493 | 69 ft | 0 kts | 181° |
| 2026-04-20 19:45 | 36.69513 | 3.20494 | 68 ft | 3 kts | 171° |
| 2026-04-20 19:45 | 36.69494 | 3.20519 | 68 ft | 0 kts | 119° |
| 2026-04-20 19:46 | 36.69845 | 3.21950 | 69 ft | 0 kts | 297° |